Terminal Aerodrome Forecast
Issued by NWS

Home | Current Version | Previous Version | Text Only | Print | Product List | Glossary On
Versions: 1 2 3 4 5 6 7 8 9 10 11 12 13 14 15 16 17 18 19 20 21 22 23 24 25 26 27 28
000
FTUS45 KPSR 170841 AAA
TAFPHX
TAF AMD
KPHX 170841Z 1709/1812 10005KT P6SM SCT120 OVC200
     FM171030 08010KT P6SM VCSH SCT050 OVC080
      TEMPO 1713/1715 36010KT -TSRA BKN050 OVC070CB
     FM172100 15010KT P6SM VCSH BKN060
     FM180100 VRB04KT P6SM SCT060 BKN080=

USA.gov is the U.S. government's official web portal to all federal, state and local government web resources and services.